Time;durP1;ratioP1;P1;durP2;ratioP2;P2;SDS_P1;SDS_P2;PMS_P1;PMS_P2;Temp;Humidity;BMP_temperature;BMP_pressure;BME280_temperature;BME280_humidity;BME280_pressure;Samples;Min_cycle;Max_cycle;Signal;HPM_P1;HPM_P2
2023/04/01 00:01:47;;;;;;;5.30;3.13;;;10.50;1.00;;;;;;4941417;28;20458;-86
2023/04/01 00:04:15;;;;;;;5.23;3.20;;;10.60;1.00;;;;;;4935282;28;21061;-87
2023/04/01 00:06:43;;;;;;;9.83;4.73;;;10.60;1.00;;;;;;4936573;28;20568;-87
2023/04/01 00:09:11;;;;;;;6.10;3.57;;;10.60;1.00;;;;;;4932838;28;22232;-86
2023/04/01 00:11:38;;;;;;;6.00;3.37;;;10.60;1.00;;;;;;4931852;28;20433;-85
2023/04/01 00:14:05;;;;;;;5.37;3.47;;;10.60;1.00;;;;;;4932072;28;21005;-83
2023/04/01 00:16:32;;;;;;;4.80;2.97;;;10.60;1.00;;;;;;4935846;28;20470;-84
2023/04/01 00:19:01;;;;;;;6.90;3.83;;;10.60;1.00;;;;;;4931477;28;24211;-86
2023/04/01 00:21:27;;;;;;;7.30;4.40;;;10.50;1.00;;;;;;4931215;28;20553;-85
2023/04/01 00:23:54;;;;;;;6.90;4.13;;;10.50;1.00;;;;;;4934718;28;20547;-84
2023/04/01 00:26:22;;;;;;;7.07;3.37;;;10.60;1.00;;;;;;4936732;28;20538;-84
2023/04/01 00:28:49;;;;;;;5.53;3.20;;;10.60;1.00;;;;;;4935883;28;20469;-84
2023/04/01 00:31:16;;;;;;;6.27;3.30;;;10.60;1.00;;;;;;4933176;28;21299;-85
2023/04/01 00:33:44;;;;;;;5.30;3.30;;;10.60;1.00;;;;;;4939042;28;20485;-84
2023/04/01 00:36:14;;;;;;;7.40;4.73;;;10.60;1.00;;;;;;4941315;28;20457;-85
2023/04/01 00:38:42;;;;;;;5.80;3.60;;;10.60;1.00;;;;;;4938741;28;20549;-83
2023/04/01 00:41:14;;;;;;;5.80;4.47;;;10.70;1.00;;;;;;4937435;28;20464;-84
2023/04/01 00:43:41;;;;;;;5.13;3.13;;;10.70;1.00;;;;;;4934775;28;21219;-83
2023/04/01 00:46:08;;;;;;;6.10;3.60;;;10.70;1.00;;;;;;4935419;28;20469;-84
2023/04/01 00:48:39;;;;;;;5.40;4.03;;;10.70;1.00;;;;;;4935529;28;20461;-85
2023/04/01 00:51:10;;;;;;;7.43;3.97;;;10.70;1.00;;;;;;4935236;28;20502;-85
2023/04/01 00:53:44;;;;;;;6.83;4.43;;;10.70;1.00;;;;;;4926699;28;20505;-85
2023/04/01 00:56:16;;;;;;;8.50;4.77;;;10.70;1.00;;;;;;4943208;28;20459;-85
2023/04/01 00:58:47;;;;;;;5.27;3.53;;;10.70;1.00;;;;;;4943079;28;20880;-84
2023/04/01 01:01:15;;;;;;;6.70;4.17;;;10.70;1.00;;;;;;4940523;28;20414;-81
2023/04/01 01:03:42;;;;;;;5.57;3.57;;;10.70;1.00;;;;;;5016665;23;20486;-78
2023/04/01 01:06:21;;;;;;;6.43;3.90;;;10.80;1.00;;;;;;4919931;28;20842;-78
2023/04/01 01:09:07;;;;;;;6.30;4.23;;;10.80;1.00;;;;;;4921252;29;20469;-77
2023/04/01 01:11:40;;;;;;;6.73;3.47;;;10.80;1.00;;;;;;4900069;29;21017;-78
2023/04/01 01:14:17;;;;;;;4.93;3.83;;;10.80;1.00;;;;;;4916681;29;21053;-76
2023/04/01 01:16:52;;;;;;;7.70;4.10;;;10.80;1.00;;;;;;4917032;29;20466;-77
2023/04/01 01:19:50;;;;;;;6.20;3.30;;;10.80;1.00;;;;;;4913921;29;20462;-77
2023/04/01 01:22:46;;;;;;;5.43;3.33;;;10.70;1.00;;;;;;4897910;29;20461;-76
2023/04/01 01:25:28;;;;;;;6.67;4.23;;;10.80;1.00;;;;;;4906829;29;20739;-77
2023/04/01 01:28:12;;;;;;;5.77;3.70;;;10.80;1.00;;;;;;4920727;29;20456;-76
2023/04/01 01:30:48;;;;;;;5.70;4.00;;;10.70;1.00;;;;;;4917257;29;20586;-77
2023/04/01 01:33:36;;;;;;;4.73;3.30;;;10.70;1.00;;;;;;4911755;29;20519;-77
2023/04/01 01:36:07;;;;;;;6.20;3.77;;;10.80;1.00;;;;;;4913067;29;20538;-77
2023/04/01 01:38:36;;;;;;;7.37;4.40;;;10.80;1.00;;;;;;4915829;29;20462;-77
2023/04/01 01:41:06;;;;;;;5.00;3.90;;;10.80;1.00;;;;;;4912992;29;20562;-76
2023/04/01 01:43:37;;;;;;;7.13;4.40;;;10.80;1.00;;;;;;4898981;28;20486;-76
2023/04/01 01:46:11;;;;;;;7.50;4.17;;;10.80;1.00;;;;;;4910752;29;20812;-76
2023/04/01 01:48:39;;;;;;;6.83;3.90;;;10.90;1.00;;;;;;4907432;29;20490;-77
2023/04/01 01:51:08;;;;;;;4.93;3.60;;;10.80;1.00;;;;;;4910286;29;20472;-77
2023/04/01 01:53:36;;;;;;;7.97;4.30;;;10.90;1.00;;;;;;4914758;29;20474;-76
2023/04/01 01:56:04;;;;;;;5.73;4.13;;;10.90;1.00;;;;;;4899020;29;20562;-77
2023/04/01 01:58:40;;;;;;;7.83;3.80;;;10.90;1.00;;;;;;4905253;29;20459;-77
2023/04/01 02:01:11;;;;;;;7.00;3.97;;;10.90;1.00;;;;;;4906908;29;20455;-78
2023/04/01 02:03:41;;;;;;;6.13;3.90;;;10.90;1.00;;;;;;4905164;29;20470;-76
2023/04/01 02:06:15;;;;;;;7.83;4.10;;;10.80;1.00;;;;;;4908156;29;20983;-76
2023/04/01 02:08:46;;;;;;;22.03;19.60;;;10.80;1.00;;;;;;4905559;29;20480;-76
2023/04/01 02:11:15;;;;;;;6.27;3.97;;;10.80;1.00;;;;;;4911850;29;20456;-76
2023/04/01 02:13:51;;;;;;;6.03;3.60;;;10.80;1.00;;;;;;4915822;29;20475;-76
2023/04/01 02:16:24;;;;;;;7.70;3.93;;;10.80;1.00;;;;;;4911233;29;20491;-77
2023/04/01 02:18:55;;;;;;;7.27;4.20;;;10.80;1.00;;;;;;4900369;29;20530;-77
2023/04/01 02:21:30;;;;;;;5.33;3.60;;;10.90;1.00;;;;;;4898583;29;21244;-77
2023/04/01 02:23:59;;;;;;;5.83;3.40;;;10.80;1.00;;;;;;4912169;29;20475;-78
2023/04/01 02:26:27;;;;;;;6.00;3.80;;;10.90;1.00;;;;;;4910509;29;20539;-77
2023/04/01 02:28:55;;;;;;;9.80;4.27;;;10.80;1.00;;;;;;4894722;29;20471;-77
2023/04/01 02:31:24;;;;;;;6.47;3.13;;;10.80;1.00;;;;;;4911241;29;20490;-76
2023/04/01 02:33:51;;;;;;;6.63;3.17;;;10.70;1.00;;;;;;4917062;29;21016;-77
2023/04/01 02:36:18;;;;;;;6.07;3.43;;;10.70;1.00;;;;;;4909268;29;20557;-78
2023/04/01 02:38:48;;;;;;;5.60;2.87;;;10.70;1.00;;;;;;4908156;29;20482;-76
2023/04/01 02:41:15;;;;;;;6.33;3.90;;;10.70;1.00;;;;;;4909830;29;21014;-77
2023/04/01 02:43:43;;;;;;;6.40;2.73;;;10.80;1.00;;;;;;4911548;29;20528;-76
2023/04/01 02:46:10;;;;;;;6.93;3.53;;;10.70;1.00;;;;;;4910150;29;20489;-75
2023/04/01 02:48:38;;;;;;;5.87;3.30;;;10.80;1.00;;;;;;4916414;29;21006;-77
2023/04/01 02:51:08;;;;;;;6.60;3.57;;;10.80;1.00;;;;;;4908015;29;20427;-77
2023/04/01 02:53:35;;;;;;;5.37;3.50;;;10.80;1.00;;;;;;4917826;29;20558;-77
2023/04/01 02:56:04;;;;;;;7.23;3.40;;;10.70;1.00;;;;;;4895042;29;20454;-76
2023/04/01 02:58:31;;;;;;;5.77;3.60;;;10.80;1.00;;;;;;4907240;29;20593;-77
2023/04/01 03:00:57;;;;;;;5.80;3.53;;;10.80;1.00;;;;;;4912840;29;20535;-75
2023/04/01 03:03:26;;;;;;;7.40;3.80;;;10.80;1.00;;;;;;4912587;29;20477;-76
2023/04/01 03:05:55;;;;;;;7.07;4.33;;;10.80;1.00;;;;;;4910990;29;20479;-77
2023/04/01 03:08:22;;;;;;;6.40;3.83;;;10.80;1.00;;;;;;4898990;29;20962;-76
2023/04/01 03:10:49;;;;;;;9.00;3.87;;;10.70;1.00;;;;;;4910404;29;21062;-77
2023/04/01 03:13:17;;;;;;;6.53;3.70;;;10.70;1.00;;;;;;4907557;29;20817;-77
2023/04/01 03:15:45;;;;;;;6.53;3.80;;;10.80;1.00;;;;;;4915113;29;20913;-84
2023/04/01 03:18:12;;;;;;;5.87;3.50;;;10.80;1.00;;;;;;4924049;29;20900;-84
2023/04/01 03:20:40;;;;;;;6.40;3.57;;;10.80;1.00;;;;;;4925965;29;20502;-85
2023/04/01 03:23:10;;;;;;;7.13;4.17;;;10.80;1.00;;;;;;4925208;29;20467;-84
2023/04/01 03:25:37;;;;;;;9.27;4.43;;;10.80;1.00;;;;;;4922313;29;20526;-85
2023/04/01 03:28:05;;;;;;;9.03;4.33;;;10.80;1.00;;;;;;4921530;29;20906;-85
2023/04/01 03:30:34;;;;;;;8.43;4.57;;;10.70;1.00;;;;;;4919216;29;20442;-84
2023/04/01 03:33:01;;;;;;;7.33;4.37;;;10.70;1.00;;;;;;4926522;29;20465;-84
2023/04/01 03:35:28;;;;;;;6.03;3.90;;;10.60;1.00;;;;;;4926657;29;20475;-84
2023/04/01 03:37:56;;;;;;;5.67;3.70;;;10.60;1.00;;;;;;4916762;29;20481;-83
2023/04/01 03:40:23;;;;;;;6.67;4.33;;;10.70;1.00;;;;;;4924209;29;20557;-83
2023/04/01 03:42:51;;;;;;;9.33;4.63;;;10.70;1.00;;;;;;4918268;29;20415;-85
2023/04/01 03:45:18;;;;;;;7.90;4.70;;;10.80;1.00;;;;;;4922251;29;20469;-84
2023/04/01 03:47:46;;;;;;;7.57;4.33;;;10.80;1.00;;;;;;4923314;29;20462;-84
2023/04/01 03:50:13;;;;;;;9.00;4.70;;;10.70;1.00;;;;;;4919512;29;20470;-83
2023/04/01 03:52:41;;;;;;;7.80;4.53;;;10.70;1.00;;;;;;4916976;29;20459;-84
2023/04/01 03:55:09;;;;;;;6.33;4.83;;;10.70;1.00;;;;;;4921796;29;20439;-83
2023/04/01 03:57:36;;;;;;;7.10;4.87;;;10.70;1.00;;;;;;4919267;29;20959;-84
2023/04/01 04:00:05;;;;;;;8.03;4.73;;;10.70;1.00;;;;;;4922595;29;20474;-83
2023/04/01 04:02:33;;;;;;;9.87;4.83;;;10.80;1.00;;;;;;4918186;29;20470;-84
2023/04/01 04:05:02;;;;;;;7.83;5.60;;;10.80;1.00;;;;;;4916300;29;22258;-83
2023/04/01 04:07:29;;;;;;;7.80;5.00;;;10.90;1.00;;;;;;4918489;29;20465;-83
2023/04/01 04:09:56;;;;;;;5.50;4.10;;;10.90;1.00;;;;;;4915252;29;20507;-83
2023/04/01 04:12:23;;;;;;;9.80;5.10;;;10.90;1.00;;;;;;4917595;29;20490;-83
2023/04/01 04:14:50;;;;;;;8.20;5.20;;;10.90;1.00;;;;;;4925197;28;20534;-83
2023/04/01 04:17:17;;;;;;;7.23;5.27;;;10.90;1.00;;;;;;4921778;29;20497;-85
2023/04/01 04:19:44;;;;;;;7.67;5.43;;;10.80;1.00;;;;;;4922445;29;20493;-84
2023/04/01 04:22:12;;;;;;;7.40;6.30;;;10.80;1.00;;;;;;4921290;29;20486;-83
2023/04/01 04:24:39;;;;;;;8.00;5.43;;;10.80;1.00;;;;;;4926255;29;20488;-83
2023/04/01 04:27:06;;;;;;;8.03;5.17;;;10.80;1.00;;;;;;4916818;29;20474;-83
2023/04/01 04:29:33;;;;;;;6.77;4.53;;;10.90;1.00;;;;;;4924248;29;20463;-84
2023/04/01 04:32:00;;;;;;;10.33;4.87;;;10.90;1.00;;;;;;4921637;29;21002;-84
2023/04/01 04:34:27;;;;;;;8.37;5.33;;;10.90;1.00;;;;;;4920873;29;20474;-85
2023/04/01 04:36:54;;;;;;;7.97;5.10;;;10.90;1.00;;;;;;4924642;29;20517;-84
2023/04/01 04:39:23;;;;;;;8.63;5.53;;;10.90;1.00;;;;;;4921350;29;20579;-84
2023/04/01 04:41:50;;;;;;;8.37;5.73;;;10.90;1.00;;;;;;4922558;29;20436;-85
2023/04/01 04:44:20;;;;;;;8.43;4.77;;;10.90;1.00;;;;;;4915591;29;20439;-84
2023/04/01 04:46:47;;;;;;;6.70;4.70;;;10.90;1.00;;;;;;4919924;29;20453;-85
2023/04/01 04:49:14;;;;;;;6.60;5.03;;;10.90;1.00;;;;;;4916957;29;21080;-85
2023/04/01 04:51:41;;;;;;;6.97;5.10;;;10.90;1.00;;;;;;4912903;29;20478;-84
2023/04/01 04:54:09;;;;;;;10.50;6.27;;;10.90;1.00;;;;;;4915543;29;20535;-84
2023/04/01 04:56:37;;;;;;;7.90;5.30;;;10.90;1.00;;;;;;4917195;29;20541;-84
2023/04/01 04:59:04;;;;;;;9.80;6.17;;;10.90;1.00;;;;;;4924305;29;20466;-84
2023/04/01 05:01:31;;;;;;;8.30;6.50;;;10.90;1.00;;;;;;4916330;29;20463;-83
2023/04/01 05:03:58;;;;;;;8.73;6.10;;;10.90;1.00;;;;;;4915053;29;20451;-84
2023/04/01 05:06:29;;;;;;;9.20;6.70;;;10.90;1.00;;;;;;4916919;29;20880;-84
2023/04/01 05:08:57;;;;;;;8.00;5.37;;;10.90;1.00;;;;;;4912941;29;20475;-84
2023/04/01 05:11:25;;;;;;;9.90;6.93;;;10.90;1.00;;;;;;4917182;29;20478;-86
2023/04/01 05:13:55;;;;;;;8.63;5.70;;;11.00;1.00;;;;;;4917823;29;20467;-85
2023/04/01 05:16:22;;;;;;;8.87;6.50;;;11.00;1.00;;;;;;4922794;29;20458;-85
2023/04/01 05:18:50;;;;;;;6.80;5.47;;;11.00;1.00;;;;;;4921354;29;21702;-85
2023/04/01 05:21:17;;;;;;;7.50;5.70;;;11.00;1.00;;;;;;4917543;29;20542;-84
2023/04/01 05:23:45;;;;;;;7.40;5.70;;;11.10;1.00;;;;;;4917438;29;20579;-85
2023/04/01 05:26:14;;;;;;;7.70;6.00;;;11.10;1.00;;;;;;4923535;28;22315;-84
2023/04/01 05:28:41;;;;;;;7.67;5.23;;;11.10;1.00;;;;;;4919499;29;20488;-84
2023/04/01 05:31:10;;;;;;;8.47;5.50;;;11.10;1.00;;;;;;4920699;29;20468;-85
2023/04/01 05:33:37;;;;;;;7.67;4.70;;;11.00;1.00;;;;;;4920210;29;20450;-84
2023/04/01 05:36:10;;;;;;;8.50;5.33;;;11.00;1.00;;;;;;4917998;29;20452;-85
2023/04/01 05:38:37;;;;;;;8.07;5.57;;;11.00;1.00;;;;;;4924223;29;20467;-85
2023/04/01 05:41:04;;;;;;;9.20;5.33;;;11.00;1.00;;;;;;4924119;29;20507;-84
2023/04/01 05:43:31;;;;;;;8.43;5.30;;;11.00;1.00;;;;;;4920647;29;20547;-84
2023/04/01 05:45:59;;;;;;;8.93;5.60;;;11.10;1.00;;;;;;4913563;29;20496;-84
2023/04/01 05:48:27;;;;;;;8.13;6.23;;;11.10;1.00;;;;;;4916582;29;20466;-85
2023/04/01 05:50:54;;;;;;;9.70;6.50;;;11.10;1.00;;;;;;4908388;28;20447;-83
2023/04/01 05:53:22;;;;;;;8.20;5.80;;;11.10;1.00;;;;;;4925585;29;20471;-86
2023/04/01 05:55:49;;;;;;;12.67;7.30;;;11.10;1.00;;;;;;4921773;29;20463;-86
2023/04/01 05:58:16;;;;;;;8.17;6.10;;;11.10;1.00;;;;;;4909751;29;20426;-86
2023/04/01 06:00:44;;;;;;;8.37;5.83;;;11.10;1.00;;;;;;4921384;28;20459;-85
2023/04/01 06:03:10;;;;;;;9.07;6.27;;;11.00;1.00;;;;;;4921630;29;20466;-87
2023/04/01 06:05:42;;;;;;;9.50;5.67;;;11.00;1.00;;;;;;4920972;29;21286;-87
2023/04/01 06:08:14;;;;;;;7.13;4.93;;;11.10;1.00;;;;;;4916575;29;20855;-83
2023/04/01 06:11:03;;;;;;;12.80;5.90;;;11.10;1.00;;;;;;4920206;29;20471;-86
2023/04/01 06:13:53;;;;;;;9.77;6.07;;;11.10;1.00;;;;;;4907237;29;21050;-81
2023/04/01 06:16:30;;;;;;;9.87;6.20;;;11.10;1.00;;;;;;4911315;29;20486;-82
2023/04/01 06:19:13;;;;;;;10.10;6.50;;;11.10;1.00;;;;;;4914949;28;20491;-82
2023/04/01 06:22:10;;;;;;;10.27;7.60;;;11.10;1.00;;;;;;4916028;29;20471;-83
2023/04/01 06:24:51;;;;;;;10.10;8.03;;;11.20;1.00;;;;;;4916263;29;20484;-82
2023/04/01 06:27:28;;;;;;;11.13;8.77;;;11.20;1.00;;;;;;4911840;29;21726;-82
2023/04/01 06:30:06;;;;;;;12.87;9.10;;;11.30;1.00;;;;;;4913730;29;20563;-81
2023/04/01 06:32:55;;;;;;;10.90;8.63;;;11.40;1.00;;;;;;4913485;29;20841;-81
2023/04/01 06:35:37;;;;;;;10.10;8.30;;;11.40;1.00;;;;;;4910881;29;20440;-83
2023/04/01 06:38:46;;;;;;;12.10;8.30;;;11.40;1.00;;;;;;4910495;29;20464;-81
2023/04/01 06:41:44;;;;;;;13.10;9.10;;;11.40;1.00;;;;;;4915536;29;20471;-82
2023/04/01 06:44:19;;;;;;;12.03;9.30;;;11.40;1.00;;;;;;4914413;29;20472;-82
2023/04/01 06:46:49;;;;;;;9.73;7.67;;;11.50;1.00;;;;;;4915249;29;21259;-82
2023/04/01 06:49:42;;;;;;;8.70;6.87;;;11.50;1.00;;;;;;4911333;29;21039;-83
2023/04/01 06:52:20;;;;;;;10.53;7.87;;;11.50;1.00;;;;;;4914686;29;21243;-81
2023/04/01 06:55:01;;;;;;;11.23;7.40;;;11.60;1.00;;;;;;4911446;29;21278;-85
2023/04/01 06:57:34;;;;;;;10.60;7.67;;;11.70;1.00;;;;;;4910650;29;20488;-80
2023/04/01 07:00:04;;;;;;;8.70;6.27;;;11.70;1.00;;;;;;4914792;29;20472;-82
2023/04/01 07:02:53;;;;;;;11.57;6.83;;;11.80;1.00;;;;;;4914676;29;20536;-82
2023/04/01 07:05:21;;;;;;;6.97;5.17;;;11.80;1.00;;;;;;4912569;29;20547;-82
2023/04/01 07:07:52;;;;;;;8.13;5.47;;;11.60;1.00;;;;;;4908629;29;21244;-82
2023/04/01 07:10:29;;;;;;;8.53;6.03;;;11.50;1.00;;;;;;4904454;29;20549;-81
2023/04/01 07:13:02;;;;;;;8.90;5.57;;;11.60;1.00;;;;;;4905813;29;20476;-83
2023/04/01 07:15:34;;;;;;;8.97;5.40;;;11.50;1.00;;;;;;4905568;29;20560;-81
2023/04/01 07:18:06;;;;;;;6.80;5.03;;;11.50;1.00;;;;;;4900976;29;20572;-81
2023/04/01 07:20:37;;;;;;;7.00;5.17;;;11.50;1.00;;;;;;4908074;29;20472;-81
2023/04/01 07:23:11;;;;;;;9.53;5.43;;;11.70;1.00;;;;;;4912826;29;21348;-80
2023/04/01 07:25:44;;;;;;;9.57;6.43;;;11.80;1.00;;;;;;4921021;29;20887;-78
2023/04/01 07:28:16;;;;;;;9.67;5.47;;;11.80;1.00;;;;;;4920038;29;20495;-78
2023/04/01 07:30:52;;;;;;;8.27;5.53;;;11.80;1.00;;;;;;4917574;29;21045;-82
2023/04/01 07:33:28;;;;;;;10.40;6.40;;;11.90;1.00;;;;;;4918546;29;20465;-81
2023/04/01 07:36:07;;;;;;;8.80;6.37;;;11.80;1.00;;;;;;4915994;28;20472;-83
2023/04/01 07:38:45;;;;;;;9.70;6.50;;;11.80;1.00;;;;;;4924873;28;20508;-83
2023/04/01 07:41:40;;;;;;;12.50;5.70;;;11.80;1.00;;;;;;4906332;29;20801;-82
2023/04/01 07:44:13;;;;;;;11.03;5.93;;;11.90;1.00;;;;;;4906988;29;20649;-85
2023/04/01 07:46:55;;;;;;;6.63;5.67;;;11.90;1.00;;;;;;4922261;29;21097;-82
2023/04/01 07:49:30;;;;;;;8.90;5.47;;;12.00;1.00;;;;;;4921177;29;21236;-85
2023/04/01 07:52:03;;;;;;;8.57;5.23;;;12.00;1.00;;;;;;4918742;29;20519;-84
2023/04/01 07:54:39;;;;;;;9.03;5.90;;;12.00;1.00;;;;;;4918986;29;20912;-84
2023/04/01 07:57:15;;;;;;;7.90;6.00;;;12.10;1.00;;;;;;4922605;29;20428;-83
2023/04/01 08:00:00;;;;;;;11.43;6.60;;;12.00;1.00;;;;;;4929659;28;20988;-83
2023/04/01 08:02:44;;;;;;;11.80;6.87;;;12.10;1.00;;;;;;4923948;29;21287;-81
2023/04/01 08:05:21;;;;;;;8.97;5.83;;;12.20;1.00;;;;;;4915069;29;20462;-81
2023/04/01 08:07:57;;;;;;;7.73;5.47;;;12.20;1.00;;;;;;4927494;29;20485;-84
2023/04/01 08:10:33;;;;;;;8.77;6.53;;;12.20;1.00;;;;;;4926601;29;21032;-84
2023/04/01 08:13:11;;;;;;;14.20;8.80;;;12.10;1.00;;;;;;4927552;28;20464;-82
2023/04/01 08:15:45;;;;;;;7.40;6.10;;;12.00;1.00;;;;;;4932902;28;20474;-84
2023/04/01 08:18:25;;;;;;;7.30;4.77;;;12.00;1.00;;;;;;4931341;28;20430;-85
2023/04/01 08:20:56;;;;;;;7.83;4.73;;;12.00;1.00;;;;;;4932791;29;20511;-84
2023/04/01 08:23:28;;;;;;;6.10;4.20;;;11.90;1.00;;;;;;4934657;29;20444;-86
2023/04/01 08:26:03;;;;;;;7.70;4.73;;;11.80;1.00;;;;;;4935535;29;20483;-86
2023/04/01 08:28:40;;;;;;;8.30;5.83;;;11.80;1.00;;;;;;4935767;28;20483;-85
2023/04/01 08:31:13;;;;;;;10.30;7.17;;;11.80;1.00;;;;;;4920841;29;20453;-86
2023/04/01 08:33:44;;;;;;;10.63;8.23;;;11.70;1.00;;;;;;4926750;29;20431;-86
2023/04/01 08:36:16;;;;;;;12.30;9.70;;;11.70;1.00;;;;;;4927768;29;21277;-85
2023/04/01 08:38:46;;;;;;;13.30;9.97;;;11.70;1.00;;;;;;4931720;29;20435;-87
2023/04/01 08:41:43;;;;;;;12.13;9.07;;;11.60;1.00;;;;;;4922781;29;20431;-83
2023/04/01 08:44:59;;;;;;;12.67;9.17;;;11.60;1.00;;;;;;4929299;29;20526;-85
2023/04/01 08:47:57;;;;;;;11.40;9.93;;;11.50;1.00;;;;;;4874713;29;20466;-86
2023/04/01 08:50:57;;;;;;;13.40;9.57;;;11.40;1.00;;;;;;4890742;29;20436;-83
2023/04/01 08:53:43;;;;;;;11.50;9.73;;;11.30;1.00;;;;;;4889354;29;20479;-82
2023/04/01 08:56:20;;;;;;;12.63;11.10;;;11.30;1.00;;;;;;4910959;29;20475;-83
2023/04/01 08:59:17;;;;;;;13.00;10.70;;;11.30;1.00;;;;;;4920864;29;20602;-80
2023/04/01 09:06:10;;;;;;;;;;;;;;;;;;;;;
2023/04/01 09:08:54;;;;;;;12.23;10.07;;;11.60;1.00;;;;;;4922186;29;40483;-83
2023/04/01 09:12:01;;;;;;;11.07;9.00;;;11.80;1.00;;;;;;4920403;28;20491;-82
2023/04/01 09:14:48;;;;;;;13.20;10.20;;;11.90;1.00;;;;;;4917005;29;20470;-81
2023/04/01 09:17:50;;;;;;;12.00;9.43;;;11.90;1.00;;;;;;4912069;29;21001;-82
2023/04/01 09:20:59;;;;;;;10.90;9.03;;;11.90;1.00;;;;;;4918670;29;21349;-83
2023/04/01 09:24:00;;;;;;;10.27;8.93;;;11.90;1.00;;;;;;4914588;29;20828;-83
2023/04/01 09:26:42;;;;;;;11.20;10.00;;;11.90;1.00;;;;;;4908680;29;21024;-82
2023/04/01 09:29:30;;;;;;;11.60;10.33;;;12.00;1.00;;;;;;4917839;29;20483;-83
2023/04/01 09:32:34;;;;;;;12.43;11.00;;;12.00;1.00;;;;;;4914355;29;20474;-81
2023/04/01 09:35:14;;;;;;;13.40;10.60;;;11.90;1.00;;;;;;4913451;29;20467;-82
2023/04/01 09:37:58;;;;;;;13.13;9.90;;;11.90;1.00;;;;;;4918263;29;20499;-81
2023/04/01 09:40:38;;;;;;;16.27;11.73;;;11.90;1.00;;;;;;4918449;29;20540;-83
2023/04/01 09:43:24;;;;;;;12.77;11.33;;;11.90;1.00;;;;;;4905209;29;20460;-82
2023/04/01 09:46:11;;;;;;;13.13;10.40;;;11.90;1.00;;;;;;4915287;29;20499;-82
2023/04/01 09:49:11;;;;;;;12.53;10.50;;;11.80;1.00;;;;;;4921331;29;20475;-83
2023/04/01 09:51:51;;;;;;;10.60;9.40;;;11.80;1.00;;;;;;4890549;29;20471;-82
2023/04/01 09:54:47;;;;;;;11.63;9.83;;;11.80;1.00;;;;;;4921797;29;20499;-82
2023/04/01 09:57:52;;;;;;;11.63;9.50;;;11.80;1.00;;;;;;4912632;29;20431;-82
2023/04/01 10:00:55;;;;;;;10.57;9.30;;;11.90;1.00;;;;;;4924636;29;20472;-83
2023/04/01 10:04:20;;;;;;;11.50;10.30;;;11.90;1.00;;;;;;4888891;29;20557;-84
2023/04/01 10:07:23;;;;;;;11.80;10.30;;;11.90;1.00;;;;;;4841609;29;20458;-82
2023/04/01 10:10:29;;;;;;;11.90;10.70;;;11.50;1.00;;;;;;4914913;29;20463;-80
2023/04/01 10:16:50;;;;;;;12.53;11.03;;;11.30;1.00;;;;;;4910627;29;20475;-83
2023/04/01 10:19:53;;;;;;;12.70;11.40;;;11.30;1.00;;;;;;4921558;29;20543;-83
2023/04/01 10:22:59;;;;;;;12.33;11.03;;;11.30;1.00;;;;;;4916489;29;20498;-82
2023/04/01 10:25:59;;;;;;;13.57;11.20;;;11.20;1.00;;;;;;4897464;29;20562;-83
2023/04/01 10:28:59;;;;;;;12.03;10.90;;;11.30;1.00;;;;;;4915799;29;20435;-83
2023/04/01 10:32:00;;;;;;;12.43;10.97;;;11.40;1.00;;;;;;4907575;29;20451;-82
2023/04/01 10:35:04;;;;;;;12.77;11.57;;;11.50;1.00;;;;;;4899869;29;20513;-82
2023/04/01 10:37:59;;;;;;;12.30;11.00;;;11.60;1.00;;;;;;4919010;29;20543;-86
2023/04/01 10:40:38;;;;;;;12.97;11.23;;;11.60;1.00;;;;;;4916541;29;20503;-81
2023/04/01 10:43:38;;;;;;;9.20;8.40;;;11.60;1.00;;;;;;4923772;28;20438;-84
2023/04/01 10:46:53;;;;;;;10.53;9.10;;;11.60;1.00;;;;;;4901606;29;20542;-84
2023/04/01 10:50:09;;;;;;;9.13;8.23;;;11.50;1.00;;;;;;4885959;29;20457;-86
2023/04/01 10:53:31;;;;;;;8.33;7.53;;;11.50;1.00;;;;;;4908978;29;20452;-84
2023/04/01 10:56:41;;;;;;;7.97;7.17;;;11.60;1.00;;;;;;4933971;29;20433;-83
2023/04/01 10:59:44;;;;;;;6.40;5.60;;;11.70;1.00;;;;;;4890866;29;20442;-84
2023/04/01 11:03:11;;;;;;;6.27;5.00;;;11.70;1.00;;;;;;4884165;29;20460;-84
2023/04/01 11:06:17;;;;;;;6.93;6.13;;;11.60;1.00;;;;;;4855364;29;20605;-82
2023/04/01 11:09:20;;;;;;;6.30;5.17;;;11.60;1.00;;;;;;4855136;29;20495;-80
2023/04/01 11:12:34;;;;;;;6.80;5.83;;;11.50;1.00;;;;;;4921597;29;20435;-82
2023/04/01 11:15:34;;;;;;;7.43;5.40;;;11.50;1.00;;;;;;4888639;29;20614;-84
2023/04/01 11:18:54;;;;;;;6.67;5.23;;;11.40;1.00;;;;;;4902093;29;20893;-83
2023/04/01 11:22:03;;;;;;;5.60;4.53;;;11.30;1.00;;;;;;4917456;29;20467;-83
2023/04/01 11:25:03;;;;;;;7.13;6.03;;;11.30;1.00;;;;;;4859928;29;20461;-84
2023/04/01 11:28:03;;;;;;;6.83;6.13;;;11.20;1.00;;;;;;4857152;29;20467;-83
2023/04/01 11:30:45;;;;;;;7.03;5.50;;;11.30;1.00;;;;;;4915025;29;20464;-81
2023/04/01 11:33:20;;;;;;;5.93;4.20;;;11.30;1.00;;;;;;4906134;29;20434;-82
2023/04/01 11:36:13;;;;;;;6.23;4.30;;;11.10;1.00;;;;;;4921299;29;20505;-83
2023/04/01 11:39:04;;;;;;;5.50;4.50;;;11.00;1.00;;;;;;4922321;28;20425;-82
2023/04/01 11:41:40;;;;;;;5.37;4.37;;;11.00;1.00;;;;;;4896125;29;21205;-82
2023/04/01 11:44:18;;;;;;;6.33;5.10;;;11.00;1.00;;;;;;4921259;29;20442;-86
2023/04/01 11:47:07;;;;;;;6.03;4.40;;;10.90;1.00;;;;;;4910318;29;20486;-83
2023/04/01 11:49:51;;;;;;;6.97;5.30;;;11.00;1.00;;;;;;4920470;28;21275;-84
2023/04/01 11:52:51;;;;;;;6.47;4.63;;;11.10;1.00;;;;;;4922600;29;20490;-82
2023/04/01 11:55:32;;;;;;;6.20;4.77;;;11.20;1.00;;;;;;4914248;29;21212;-84
2023/04/01 11:58:44;;;;;;;6.17;4.33;;;11.20;1.00;;;;;;4919115;29;20882;-84
2023/04/01 12:01:31;;;;;;;6.10;4.33;;;11.10;1.00;;;;;;4920888;29;20459;-83
2023/04/01 12:04:37;;;;;;;6.77;4.57;;;11.00;1.00;;;;;;4917919;29;20439;-85
2023/04/01 12:07:18;;;;;;;6.73;4.90;;;10.80;1.00;;;;;;4916687;29;21051;-86
2023/04/01 12:10:08;;;;;;;6.50;5.60;;;10.80;1.00;;;;;;4915930;29;20553;-88
2023/04/01 12:12:43;;;;;;;6.93;5.50;;;10.70;1.00;;;;;;4925854;28;20415;-86
2023/04/01 12:15:23;;;;;;;7.53;5.20;;;10.60;1.00;;;;;;4922261;29;20483;-88
2023/04/01 12:18:47;;;;;;;6.90;5.37;;;10.60;1.00;;;;;;4938698;29;20423;-89
2023/04/01 12:21:26;;;;;;;6.60;5.90;;;10.60;1.00;;;;;;4934461;29;20431;-85
2023/04/01 12:24:26;;;;;;;6.83;5.37;;;10.60;1.00;;;;;;4930117;29;20418;-86
2023/04/01 12:27:32;;;;;;;7.93;6.10;;;10.60;1.00;;;;;;4929566;28;20478;-85
2023/04/01 12:30:28;;;;;;;7.07;6.33;;;10.60;1.00;;;;;;4929246;28;20441;-87
2023/04/01 12:33:26;;;;;;;6.90;6.10;;;10.50;1.00;;;;;;4920116;28;20492;-87
2023/04/01 12:36:08;;;;;;;7.27;6.00;;;10.60;1.00;;;;;;4933858;29;20467;-86
2023/04/01 12:38:52;;;;;;;7.43;6.37;;;10.60;1.00;;;;;;4932003;28;20434;-87
2023/04/01 12:41:28;;;;;;;9.60;6.80;;;10.60;1.00;;;;;;4931218;28;20597;-86
2023/04/01 12:44:43;;;;;;;8.13;6.57;;;10.60;1.00;;;;;;4928934;29;20629;-87
2023/04/01 12:47:32;;;;;;;8.03;6.30;;;10.70;1.00;;;;;;4930083;29;20466;-86
2023/04/01 12:50:32;;;;;;;7.90;5.70;;;10.70;1.00;;;;;;4923466;29;20482;-87
2023/04/01 12:53:12;;;;;;;8.07;6.00;;;10.70;1.00;;;;;;4926210;29;20456;-89
2023/04/01 12:55:58;;;;;;;6.60;5.63;;;10.80;1.00;;;;;;4917591;29;20455;-86
2023/04/01 12:58:55;;;;;;;8.30;6.07;;;10.80;1.00;;;;;;4927095;28;20465;-85
2023/04/01 13:02:00;;;;;;;5.63;5.03;;;10.80;1.00;;;;;;4936794;28;20435;-87
2023/04/01 13:04:51;;;;;;;7.07;5.60;;;10.80;1.00;;;;;;4935334;29;20439;-86
2023/04/01 13:07:46;;;;;;;7.87;7.07;;;10.70;1.00;;;;;;4934911;28;20431;-88
2023/04/01 13:15:32;;;;;;;9.97;8.97;;;10.50;1.00;;;;;;5240563;23;20432;-84
2023/04/01 13:18:11;;;;;;;10.30;9.30;;;10.40;1.00;;;;;;4944099;28;20555;-85
2023/04/01 13:20:52;;;;;;;9.83;8.93;;;10.30;1.00;;;;;;4983380;28;20420;-86
2023/04/01 13:23:37;;;;;;;9.27;8.10;;;10.10;1.00;;;;;;4969318;28;20461;-85
2023/04/01 13:26:13;;;;;;;9.27;8.27;;;9.90;1.00;;;;;;4981986;28;20498;-85
2023/04/01 13:28:44;;;;;;;8.87;7.90;;;9.90;1.00;;;;;;4979843;28;20424;-83
2023/04/01 13:31:33;;;;;;;9.77;7.73;;;9.90;1.00;;;;;;4979663;28;20468;-84
2023/04/01 13:34:16;;;;;;;8.80;7.80;;;9.90;1.00;;;;;;4963324;28;20471;-83
2023/04/01 13:36:52;;;;;;;10.90;8.30;;;9.80;1.00;;;;;;4971218;28;20503;-83
2023/04/01 13:39:44;;;;;;;8.00;7.17;;;9.90;1.00;;;;;;4967885;28;21619;-84
2023/04/01 13:42:24;;;;;;;8.77;7.87;;;9.80;1.00;;;;;;4980128;28;20468;-83
2023/04/01 13:44:57;;;;;;;9.00;8.00;;;9.80;1.00;;;;;;4976192;28;20451;-87
2023/04/01 13:47:48;;;;;;;8.17;7.17;;;9.70;1.00;;;;;;4981154;28;20464;-87
2023/04/01 13:50:34;;;;;;;8.20;7.30;;;9.70;1.00;;;;;;4963126;28;20491;-86
2023/04/01 13:53:21;;;;;;;9.60;7.27;;;9.80;1.00;;;;;;4979500;28;20456;-86
2023/04/01 13:56:02;;;;;;;9.30;7.67;;;9.80;1.00;;;;;;4979432;28;20440;-86
2023/04/01 13:58:50;;;;;;;9.37;7.57;;;9.80;1.00;;;;;;4981788;28;20640;-88
2023/04/01 14:01:27;;;;;;;9.60;7.23;;;9.70;1.00;;;;;;4977217;28;20484;-86
2023/04/01 14:04:37;;;;;;;9.10;8.07;;;9.60;1.00;;;;;;4980972;28;20487;-85
2023/04/01 14:07:20;;;;;;;7.90;7.07;;;9.40;1.00;;;;;;4981475;28;20479;-85
2023/04/01 14:10:12;;;;;;;8.73;7.40;;;9.30;1.00;;;;;;4980261;28;20461;-86
2023/04/01 14:12:48;;;;;;;9.60;8.47;;;9.40;1.00;;;;;;4975197;28;20456;-84